Airfield :
LOGIN :

Register | Disclaimer

   EN    FR    IT 

 










Legend :    VFR   Marginal VFR   IFR   Intensive IFR   Very Intensive IFR
Visi :
Ceiling :
>= 8 km
>= 3000ft
5 to 8 km
1000 to 3000 ft
1500m to 5 km
500 to 1000 ft
800 to 1500m
200 to 500 ft
< 800m
< 200 ft
Symbols :   Thunderstorms  Fog  Heavy snow  Heavy precipitations  Wind > 20 kt
SIGMETs :     Misc.  Thunderstorms  Icing  Turbulence  Mountain Waves  Volcanic Ashes






- Airport Elevation : 508 ft
- IATA code : HRK


UKHH - Osnova

CURRENT METAR :
  • 281530Z 14004MPS 4500 BR BKN006 OVC040 00/M01 Q1012 R07/0///81 NOSIG

EXPIRED METARs :
  • 281500Z 14003MPS 4600 BR OVC048 00/M01 Q1012 R07/0///81 NOSIG
  • 281430Z 13003MPS 4600 BR OVC046 00/M01 Q1012 R07/0///81 NOSIG
  • 281400Z 14003MPS 5000 BR SCT007 OVC036 00/M01 Q1012 R07/0///81 NOSIG
  • 281330Z 14003MPS 4500 BR SCT007 OVC031 00/M01 Q1012 R07/0///81 NOSIG
  • 281300Z 14004MPS 4400 BR SCT007 OVC031 01/M01 Q1012 R07/0///81 NOSIG
  • 281230Z 14004MPS 4300 BR BKN006 OVC031 00/M01 Q1012 R07/0///81 NOSIG

TAF TAF UKHH
Valid from the 28 at 12:00 until the 29 at 12:00 UTC


281103Z 2812/2912 12002MPS 2100 BR OVC005 TX02/2912Z TNM01/2824Z
TEMPO 2812/2815 1400 OVC002
BECMG 2815/2816 1100 OVC002
TEMPO 2816/2818 0600 FZFG
TEMPO 2818/2906 0400 -FZRA -SHSN FZFG BKN015CB



MET'MAP, your aeronautical weather chart ! - Copyright ORBIFLY December 2007 - Disclaimer

ORBIFLY MET'MAP TEAM :

Programming & Development : Alexandra Zaïnal
Concept & original design : Baudouin d'Aumeries
Assistance for programming : Marc-Olivier Méhu
Technical & hardware support : Manuel Goepfert

Contact : metmap@orbifly.com




SOURCES & CREDITS :

   NOAA